Date,TemperatureHighF,TemperatureAvgF,TemperatureLowF,DewpointHighF,DewpointAvgF,DewpointLowF,HumidityHigh,HumidityAvg,HumidityLow,PressureMaxIn,PressureMinIn,WindSpeedMaxMPH,WindSpeedAvgMPH,GustSpeedMaxMPH,PrecipitationSumIn
2013-1-1,30,27,26,28,26,24,97,96,92,30.21,30.03,12,5,13,0.00
2013-1-2,37,31,27,32,29,26,97,90,78,30.39,30.06,14,3,14,0.00
2013-1-3,43,39,30,36,30,26,86,72,57,30.47,30.27,18,3,18,0.00
2013-1-4,50,46,42,40,36,32,79,69,51,30.27,30.03,33,6,33,0.00
2013-1-5,54,46,38,45,33,20,93,62,40,30.12,29.91,33,11,33,0.00
2013-1-6,38,36,33,36,24,19,91,64,49,30.15,29.94,23,4,23,0.00
2013-1-7,38,33,27,33,22,15,89,64,45,30.39,30.00,11,2,11,0.00
2013-1-8,32,27,21,25,18,14,92,70,49,30.39,30.18,10,1,10,0.00
2013-1-9,30,27,24,28,26,22,96,93,88,30.21,30.09,12,3,12,0.00
2013-1-10,32,28,24,32,27,23,97,97,96,30.09,29.74,12,3,12,0.00
2013-1-11,38,33,29,37,28,19,97,83,62,29.97,29.71,23,7,23,0.00
2013-1-12,38,30,26,24,20,16,80,66,46,30.09,29.97,15,4,15,0.00
2013-1-13,30,28,26,26,25,23,93,87,79,30.09,30.06,19,4,19,0.00
2013-1-14,35,31,26,33,29,22,97,93,84,30.06,29.88,19,4,19,0.00
2013-1-15,36,34,32,36,34,32,97,97,97,29.88,29.71,7,3,7,0.00
2013-1-16,41,36,32,41,34,30,97,95,84,29.71,29.56,15,4,15,0.00
2013-1-17,37,35,33,35,34,32,97,95,92,29.68,29.53,10,3,10,0.00
2013-1-18,36,34,30,34,30,27,97,88,70,29.65,29.50,13,6,13,0.04
2013-1-19,31,28,26,29,24,20,97,85,70,29.62,29.47,8,1,8,0.00
2013-1-20,35,31,28,34,29,23,97,94,83,29.59,29.50,8,1,8,0.04
2013-1-21,39,36,34,38,35,33,97,97,97,29.50,29.41,8,4,8,0.12
2013-1-22,37,34,30,36,31,24,97,90,79,29.62,29.41,19,4,19,0.08
2013-1-23,35,30,28,28,25,22,90,82,75,29.83,29.62,15,4,15,0.00
2013-1-24,32,30,29,32,28,23,97,91,73,29.83,29.71,12,4,12,0.00
2013-1-25,33,30,27,25,19,13,82,63,52,29.94,29.74,16,6,16,0.00
2013-1-26,32,28,24,19,16,13,77,61,55,30.03,29.91,12,4,12,0.00
2013-1-27,33,26,20,26,19,15,86,75,58,30.03,29.85,11,2,11,0.00
2013-1-28,33,31,29,31,28,26,94,90,86,30.12,29.85,11,3,11,0.04
2013-1-29,38,32,24,36,29,23,96,89,79,30.12,29.97,8,2,8,0.00
2013-1-30,44,40,37,43,39,35,97,97,95,29.97,29.80,10,3,10,0.00
2013-1-31,55,47,40,47,32,24,96,58,39,30.00,29.77,33,8,34,0.00
2013-2-1,51,46,40,35,31,27,69,56,42,29.85,29.50,26,6,27,0.00
2013-2-2,44,42,40,42,37,32,97,84,67,29.50,29.26,18,4,18,0.47
2013-2-3,41,36,33,34,28,20,85,72,55,29.94,29.44,23,9,23,0.04
2013-2-4,39,34,30,33,27,19,91,74,57,29.94,29.85,8,2,8,0.00
2013-2-5,42,38,35,35,34,32,92,83,72,29.91,29.59,10,4,10,0.00
2013-2-6,39,37,33,38,35,33,97,93,84,29.59,29.44,17,3,17,0.55
2013-2-7,36,34,29,35,31,23,97,90,74,29.74,29.41,16,4,17,0.35
2013-2-8,41,32,25,28,23,21,87,72,51,29.83,29.71,13,3,13,0.00
2013-2-9,33,29,24,28,23,19,92,81,56,29.91,29.83,10,4,10,0.00
2013-2-10,32,30,28,29,27,24,94,89,83,29.91,29.83,12,4,12,0.00
2013-2-11,31,26,24,28,24,20,97,90,72,29.94,29.85,18,5,18,0.00
2013-2-12,36,32,24,32,26,22,91,79,66,29.88,29.80,24,6,24,0.35
2013-2-13,42,38,35,38,34,32,93,84,71,30.00,29.85,10,4,10,0.16
2013-2-14,39,36,34,38,34,32,97,93,84,30.12,30.00,8,3,8,0.16
2013-2-15,47,39,35,42,36,34,97,90,75,30.09,30.03,7,2,7,0.00
2013-2-16,50,39,32,43,32,26,97,77,50,30.15,30.09,12,3,13,0.16
2013-2-17,36,34,31,33,31,28,96,87,78,30.18,30.15,7,2,7,0.16
2013-2-18,40,35,31,31,29,27,90,80,69,30.18,30.09,10,2,10,0.16
2013-2-19,40,34,30,33,28,22,93,80,48,30.09,29.83,10,2,10,0.16
2013-2-20,42,35,30,33,26,21,93,70,48,30.03,29.83,20,5,20,0.16
2013-2-21,38,32,24,28,20,11,85,63,35,30.06,29.94,11,3,11,0.00
2013-2-22,34,31,28,33,28,19,97,89,62,29.94,29.74,12,4,12,0.20
2013-2-23,42,37,34,41,36,33,97,96,90,29.83,29.68,29,7,31,1.97
2013-2-24,46,43,41,44,41,38,97,90,81,29.91,29.77,20,8,21,1.26
2013-2-25,49,46,44,44,42,40,93,84,75,30.12,29.91,18,6,18,0.00
2013-2-26,55,48,43,44,42,39,92,78,62,30.12,30.06,15,4,15,0.00
2013-2-27,51,45,40,42,38,33,92,76,57,30.30,30.12,12,3,12,0.00
2013-2-28,52,44,37,40,34,30,91,70,46,30.30,30.15,8,1,8,0.00
2013-3-1,41,38,32,39,33,28,97,83,68,30.15,29.97,21,5,21,0.00
2013-3-2,49,40,33,29,24,21,71,52,37,30.15,30.03,16,4,16,0.00
2013-3-3,49,39,30,30,25,23,79,57,37,30.12,30.00,21,5,21,0.00
2013-3-4,48,39,29,31,24,21,81,56,37,30.33,30.06,10,1,10,0.00
2013-3-5,52,40,28,28,22,17,78,50,26,30.33,30.12,18,4,19,0.00
2013-3-6,50,42,34,37,30,23,72,62,51,30.12,29.80,12,3,12,0.00
2013-3-7,55,50,45,46,43,37,87,78,67,29.80,29.65,13,3,13,0.00
2013-3-8,56,50,47,50,47,44,96,89,73,29.68,29.59,11,3,11,0.00
2013-3-9,58,51,48,54,48,46,97,89,73,29.59,29.56,9,2,9,0.00
2013-3-10,57,51,47,52,46,42,97,85,62,29.56,29.47,10,2,10,0.00
2013-3-11,59,49,40,50,39,32,97,71,43,29.56,29.47,20,4,20,0.00
2013-3-12,56,48,38,43,35,30,86,61,47,29.56,29.44,18,4,18,0.00
2013-3-13,52,47,43,48,44,40,97,88,71,29.47,29.41,8,2,8,0.04
2013-3-14,45,38,29,43,36,28,97,96,91,29.47,29.26,20,5,20,0.63
2013-3-15,35,30,26,28,20,12,97,68,42,29.88,29.26,30,12,30,0.00
2013-3-16,37,32,26,17,14,8,67,50,34,30.15,29.88,20,7,22,0.04
2013-3-17,35,29,19,24,15,13,82,58,40,30.18,30.00,21,6,21,0.04
2013-3-18,37,33,29,36,25,14,97,74,52,30.00,29.38,21,8,21,1.93
2013-3-19,49,42,37,41,33,26,97,74,41,29.68,29.29,26,6,26,0.08
2013-3-20,58,48,36,39,33,28,79,58,36,29.77,29.68,13,2,14,0.04
2013-3-21,49,43,36,44,39,29,97,87,68,29.77,29.71,34,9,36,0.51
2013-3-22,45,38,31,29,24,20,75,59,48,29.94,29.74,35,13,35,0.04
2013-3-23,35,31,28,24,21,16,80,67,56,30.09,29.94,13,2,13,0.04
2013-3-24,35,29,22,15,7,5,55,41,31,30.18,30.06,15,6,15,0.04
2013-3-25,36,31,27,28,14,4,97,54,34,30.06,29.71,15,5,17,0.04
2013-3-26,34,30,27,29,27,24,97,89,77,29.77,29.68,12,5,12,0.04
2013-3-27,34,30,27,31,28,26,97,92,82,29.91,29.74,11,3,11,0.04
2013-3-28,37,34,32,33,28,22,97,80,56,30.03,29.91,16,3,16,0.98
2013-3-29,38,35,33,37,33,29,97,94,80,29.97,29.74,17,4,17,1.34
2013-3-30,47,40,34,42,37,33,97,89,70,29.74,29.56,12,3,12,0.28
2013-3-31,48,41,34,47,39,27,97,93,75,29.62,29.38,20,5,21,0.04
2013-4-1,45,38,33,27,24,22,75,57,41,29.88,29.62,21,7,22,0.04
2013-4-2,45,39,34,40,30,22,97,70,49,29.88,29.62,20,4,20,0.04
2013-4-3,45,41,39,44,40,38,97,96,93,29.74,29.59,14,4,14,0.04
2013-4-4,46,41,37,38,35,33,93,80,66,29.85,29.71,10,1,10,0.04
2013-4-5,44,40,36,41,37,33,96,88,74,29.85,29.62,16,3,16,0.00
2013-4-6,52,45,41,42,37,32,96,76,55,29.97,29.71,16,4,16,0.04
2013-4-7,48,42,37,39,34,28,89,73,55,30.00,29.91,12,3,12,0.00
2013-4-8,52,45,38,32,26,20,62,47,35,29.94,29.80,15,2,15,0.00
2013-4-9,52,47,42,41,38,32,88,71,54,29.83,29.77,13,4,13,0.00
2013-4-10,57,49,44,48,42,36,97,79,53,29.88,29.74,15,3,15,0.00
2013-4-11,66,54,38,44,39,34,89,59,37,29.94,29.83,19,3,19,0.00
2013-4-12,65,56,50,52,46,42,89,68,45,29.85,29.74,21,3,21,0.00
2013-4-13,65,56,47,47,42,35,90,63,36,30.21,29.83,37,6,37,0.00
2013-4-14,66,55,42,44,36,28,85,52,27,30.33,30.21,21,4,21,0.00
2013-4-15,64,54,39,43,35,31,87,52,33,30.36,30.24,10,2,10,0.00
2013-4-16,68,56,40,40,33,28,81,46,24,30.30,30.21,16,3,16,0.00
2013-4-17,71,59,42,44,38,31,79,50,23,30.27,30.18,10,2,10,0.00
2013-4-18,74,62,46,47,39,32,85,47,23,30.18,30.06,11,2,11,0.00
2013-4-19,76,64,46,46,38,32,78,43,21,30.12,30.00,12,2,12,0.00
2013-4-20,77,63,50,60,47,39,96,60,28,30.12,30.03,15,3,15,0.00
2013-4-21,71,62,53,49,43,38,72,50,33,30.12,29.97,15,5,15,0.00
2013-4-22,72,62,50,46,40,35,67,45,27,30.00,29.91,15,4,15,0.00
2013-4-23,72,63,51,52,47,43,82,57,35,30.21,30.00,10,2,10,0.00
2013-4-24,76,67,54,49,44,36,70,46,26,30.33,30.21,16,2,16,0.00
2013-4-25,79,67,50,50,44,37,81,47,23,30.27,30.15,13,2,13,0.00
2013-4-26,82,70,51,51,43,35,82,43,21,30.15,29.77,14,2,14,0.00
2013-4-27,78,71,62,50,46,40,50,40,31,29.77,29.71,12,3,12,0.00
2013-4-28,77,69,59,56,51,45,83,55,37,30.00,29.77,11,2,11,0.00
2013-4-29,82,71,58,54,49,45,81,49,30,30.09,30.00,12,2,12,0.00
2013-4-30,85,74,59,57,51,44,79,48,29,30.12,30.00,9,2,9,0.00
2013-5-1,84,75,64,57,51,48,65,45,30,30.12,30.03,10,2,10,0.00
2013-5-2,81,70,60,63,56,52,89,63,40,30.09,29.85,23,5,23,0.00
2013-5-3,77,66,60,64,59,53,96,79,56,29.91,29.83,20,4,20,0.00
2013-5-4,71,64,54,55,52,49,89,66,49,30.06,29.88,16,5,16,0.00
2013-5-5,76,66,54,58,52,48,93,63,39,30.18,30.06,10,3,10,0.00
2013-5-6,76,66,60,61,55,46,85,69,43,30.15,30.06,18,4,18,0.00
2013-5-7,71,65,59,62,59,56,96,81,59,30.09,29.97,21,5,22,0.00
2013-5-8,75,67,58,62,56,48,93,70,42,30.06,29.97,13,2,13,0.00
2013-5-9,77,68,57,60,53,48,92,63,37,30.06,30.00,11,2,11,0.00
2013-5-10,78,67,55,55,49,44,89,57,31,30.03,29.88,23,5,23,0.00
2013-5-12,57,57,56,47,47,47,70,70,70,29.83,29.83,21,8,21,0.00
2013-5-13,63,58,53,47,43,36,75,59,39,29.94,29.83,25,10,25,0.00
2013-5-14,64,58,50,49,44,38,79,61,47,29.94,29.88,15,5,15,0.00
2013-5-15,72,63,49,54,48,45,93,62,41,29.91,29.77,15,4,15,0.00
2013-5-16,74,65,51,55,51,48,90,62,42,29.83,29.68,26,8,26,0.00
2013-5-17,69,65,56,60,57,51,93,75,62,29.74,29.68,22,6,22,0.00
2013-5-18,73,65,55,59,51,42,97,66,34,29.94,29.71,12,3,12,0.00
2013-5-19,72,67,62,56,52,48,80,59,45,29.85,29.77,18,4,18,0.00
2013-5-20,70,64,58,58,49,41,92,60,37,29.97,29.83,12,3,12,0.00
2013-5-21,70,64,54,51,46,41,82,55,38,29.94,29.83,13,2,13,0.00
2013-5-22,67,61,53,54,48,43,82,65,46,29.83,29.68,11,2,11,0.00
2013-5-23,66,59,52,52,46,41,90,62,45,29.74,29.59,17,6,17,0.00
2013-5-24,67,59,51,48,44,42,75,59,44,29.74,29.62,12,3,12,0.00
2013-5-25,64,58,51,49,44,40,84,62,43,29.77,29.71,15,3,15,0.00
2013-5-26,64,56,51,53,44,35,91,67,39,29.77,29.71,21,5,21,0.00
2013-5-27,58,53,50,45,40,35,74,61,53,29.83,29.77,15,5,15,0.00
2013-5-28,68,59,50,52,46,43,79,65,44,29.83,29.68,13,3,13,0.00
2013-5-29,68,58,50,55,50,46,90,76,59,29.71,29.62,18,4,18,0.00
2013-5-30,63,59,53,61,55,48,96,86,73,29.53,29.44,9,2,9,0.00
2013-5-31,64,55,50,54,49,44,95,82,51,29.59,29.50,17,3,17,0.00
2013-6-1,67,56,46,60,48,45,97,77,48,29.68,29.59,16,2,16,0.00
2013-6-2,67,59,52,56,51,44,95,75,44,29.83,29.65,16,3,16,0.00
2013-6-3,64,58,53,53,50,48,90,76,62,29.88,29.83,26,10,26,0.00
2013-6-4,70,60,53,58,54,44,92,81,58,29.88,29.80,25,5,25,0.00
2013-6-5,69,62,55,61,57,54,96,85,64,30.00,29.88,10,1,10,0.00
2013-6-6,72,63,54,63,58,53,97,85,62,30.03,29.97,11,2,11,0.00
2013-6-7,78,67,58,64,57,51,97,74,42,30.00,29.94,16,4,16,0.00
2013-6-8,82,70,60,61,56,50,86,64,33,29.97,29.85,20,4,20,0.00
2013-6-9,82,72,58,63,57,51,95,62,39,29.88,29.77,14,2,14,0.00
2013-6-10,81,71,61,62,58,51,93,66,37,29.80,29.68,10,3,10,0.00
2013-6-11,71,64,58,62,58,51,95,81,60,29.85,29.74,13,3,14,0.00
2013-6-12,75,66,54,61,53,49,92,66,44,30.06,29.85,17,4,17,0.00
2013-6-13,79,71,60,56,50,45,71,50,32,30.06,29.97,15,5,15,0.00
2013-6-14,83,72,59,60,55,50,90,61,35,30.03,29.97,12,2,12,0.00
2013-6-23,86,78,69,65,62,58,81,60,41,29.83,29.80,14,4,15,0.00
2013-6-24,81,70,60,64,60,55,90,73,51,29.83,29.74,19,5,19,0.00
2013-6-25,61,59,57,58,55,51,93,85,79,29.94,29.77,23,5,23,0.00
2013-6-26,67,60,55,51,49,47,83,67,49,30.12,29.94,28,11,28,0.00
2013-6-27,69,60,54,55,51,46,84,71,50,30.12,30.03,16,5,16,0.00
2013-6-28,74,63,56,58,54,49,93,75,45,30.06,29.94,14,2,14,0.00
2013-6-29,76,67,58,61,53,43,95,65,32,29.97,29.88,15,4,15,0.00
2013-6-30,78,66,57,57,51,45,87,60,35,30.00,29.91,26,7,26,0.00
2013-7-1,74,67,54,50,44,38,72,46,33,30.06,30.00,18,6,18,0.00
2013-7-2,80,70,54,53,47,40,82,48,26,30.09,29.97,10,3,10,0.00
2013-7-3,84,73,56,54,50,44,82,48,28,30.00,29.88,17,3,17,0.00
2013-7-4,88,76,60,61,52,45,82,48,24,30.03,29.94,14,4,14,0.00
2013-7-5,82,76,66,64,57,51,80,55,36,30.12,30.03,19,4,20,0.00
2013-7-6,86,75,68,64,60,54,81,60,37,30.18,30.09,19,6,19,0.00
2013-7-7,86,78,68,61,58,53,73,53,34,30.21,30.15,15,5,15,0.00
2013-7-8,85,76,68,60,54,48,69,48,33,30.24,30.15,15,5,15,0.00
2013-7-9,85,75,66,57,53,48,65,47,31,30.18,30.00,15,4,15,0.00
2013-7-10,89,78,63,59,55,51,75,48,29,30.00,29.80,13,3,13,0.00
2013-7-11,78,72,64,60,55,46,77,56,41,29.91,29.77,23,6,23,0.00
2013-7-12,76,70,60,53,50,46,73,50,36,30.00,29.91,23,7,23,0.00
2013-7-13,78,70,61,55,51,48,72,52,36,30.00,29.97,22,6,22,0.00
2013-7-14,80,73,61,56,49,44,76,46,30,30.00,29.94,22,6,22,0.00
2013-7-15,79,70,62,57,51,44,72,52,31,30.06,29.94,26,6,26,0.00
2013-7-16,80,72,58,53,48,43,70,44,29,30.15,30.06,15,4,15,0.00
2013-7-17,85,75,59,57,52,47,79,48,29,30.15,30.06,12,3,12,0.00
2013-7-18,88,77,64,59,55,50,76,49,28,30.12,30.03,11,2,11,0.00
2013-7-19,80,72,69,62,58,54,76,64,46,30.06,29.94,7,1,8,0.00
2013-7-20,87,77,66,59,54,49,67,46,30,30.06,29.91,18,5,18,0.00
2013-7-21,82,74,64,54,47,44,61,39,30,30.12,30.06,18,4,18,0.00
2013-7-22,86,76,60,54,50,46,73,43,28,30.12,29.94,12,2,12,0.00
2013-7-23,89,78,64,56,50,42,70,40,21,29.94,29.85,17,4,17,0.00
2013-7-24,88,79,66,57,45,35,67,34,15,29.97,29.88,20,4,22,0.00
2013-7-25,81,74,63,59,53,42,63,47,37,30.00,29.91,10,2,10,0.00
2013-7-26,89,79,65,60,55,51,76,48,28,30.00,29.91,14,3,14,0.00
2013-7-27,94,82,66,62,58,53,75,47,28,29.97,29.88,8,2,8,0.00
2013-7-28,96,86,71,66,58,49,74,43,21,29.97,29.91,8,2,9,0.00
2013-7-29,98,87,71,64,58,47,71,40,26,29.97,29.83,20,2,20,0.00
2013-7-30,85,77,71,66,56,48,79,50,28,30.03,29.85,32,10,32,0.00
2013-7-31,86,78,67,58,53,49,67,43,29,30.06,29.97,20,6,20,0.00
2013-8-1,88,79,68,59,54,50,67,44,28,30.09,30.00,12,3,12,0.00
2013-8-2,92,81,65,62,56,51,79,45,26,30.09,29.97,9,2,9,0.00
2013-8-3,96,84,68,62,55,45,69,40,18,30.00,29.94,13,2,13,0.00
2013-8-4,93,84,72,63,56,49,66,40,24,30.12,30.00,15,4,15,0.00
2013-8-5,90,77,71,64,61,57,72,57,35,30.15,30.03,22,4,22,0.00
2013-8-6,96,84,69,62,57,49,70,43,21,30.06,29.94,11,2,11,0.00
2013-8-7,97,86,71,65,55,45,70,39,18,30.00,29.91,12,2,12,0.00
2013-8-8,100,87,71,63,55,45,67,37,16,30.00,29.91,17,2,17,0.00
2013-8-9,99,87,73,65,56,46,66,37,18,29.97,29.80,28,3,28,0.00
2013-8-10,78,73,69,65,60,54,74,64,51,29.97,29.88,24,8,24,0.00
2013-8-11,84,75,66,56,48,38,70,42,20,30.00,29.94,17,4,17,0.00
2013-8-12,87,77,63,59,51,43,71,43,23,30.06,29.94,12,3,12,0.00
2013-8-13,88,76,64,59,54,48,80,50,28,30.03,29.91,21,6,21,0.00
2013-8-14,76,69,64,62,53,43,82,58,32,30.15,30.00,18,4,18,0.00
2013-8-15,79,68,56,57,48,41,88,54,27,30.21,30.12,13,3,13,0.00
2013-8-16,82,70,56,52,45,39,72,44,24,30.18,30.06,10,3,10,0.00
2013-8-17,84,73,58,54,46,38,74,41,20,30.09,29.97,8,2,8,0.00
2013-8-18,88,76,59,54,47,40,75,40,19,30.06,29.97,9,1,9,0.00
2013-8-19,91,79,62,56,48,40,74,38,18,30.03,29.88,16,3,16,0.00
2013-8-20,80,73,68,62,59,50,76,62,41,30.12,29.91,22,8,22,0.00
2013-8-21,79,71,64,61,58,54,83,64,48,30.15,30.09,11,2,11,0.00
2013-8-22,79,71,60,59,54,48,84,57,36,30.12,30.00,15,2,15,0.00
2013-8-23,82,72,58,56,49,46,71,46,31,30.06,29.94,15,3,15,0.00
2013-8-24,80,71,61,52,49,46,70,48,32,30.00,29.88,14,4,14,0.00
2013-8-25,78,70,64,60,51,46,83,54,32,29.91,29.80,17,4,17,0.00
2013-8-26,70,66,62,65,61,58,95,84,69,29.91,29.85,12,3,12,0.00
2013-8-27,73,66,61,60,58,54,95,77,54,29.94,29.85,12,3,12,0.00
2013-8-28,67,63,59,64,59,57,97,88,78,29.91,29.85,11,3,11,0.00
2013-8-29,78,67,60,63,57,48,95,74,36,30.09,29.88,15,3,15,0.00
2013-8-30,75,66,58,60,54,47,93,69,39,30.09,30.03,17,2,17,0.00
2013-8-31,79,68,55,58,51,43,94,61,30,30.09,30.00,14,3,14,0.00
2013-9-1,78,68,59,58,52,45,80,58,45,30.15,30.00,22,6,22,0.00
2013-9-2,72,64,54,48,44,39,76,50,34,30.18,30.09,20,6,20,0.00
2013-9-3,74,66,60,58,51,44,78,58,42,30.21,30.00,27,10,27,0.00
2013-9-4,74,65,52,52,46,40,82,53,31,30.27,30.15,13,3,13,0.00
2013-9-5,76,64,51,52,46,43,82,56,31,30.15,30.00,16,3,16,0.00
2013-9-6,75,66,53,51,46,43,82,51,33,30.06,29.97,17,3,17,0.00
2013-9-7,77,66,52,51,46,42,84,52,31,30.15,30.03,9,2,9,0.00
2013-9-8,78,67,53,51,47,41,84,53,27,30.21,30.09,13,3,13,0.00
2013-9-9,60,59,57,57,56,55,94,91,89,30.06,30.06,4,0,4,0.00
2013-9-10,70,60,52,62,56,51,97,87,58,30.09,29.94,15,2,15,0.00
2013-9-11,66,60,55,59,54,44,97,82,51,29.94,29.88,17,3,17,0.00
2013-9-12,72,63,53,56,47,41,85,60,37,29.94,29.88,19,3,19,0.00
2013-9-13,68,61,56,50,47,44,77,63,45,29.97,29.91,19,6,19,0.00
2013-9-14,60,57,54,55,53,49,94,86,76,29.97,29.85,20,6,20,0.00
2013-9-15,73,64,52,59,54,50,94,73,52,29.91,29.74,10,1,10,0.00
2013-9-16,75,65,54,64,57,53,97,76,53,29.74,29.53,11,2,11,0.00
2013-9-17,61,56,50,60,50,39,96,79,65,29.65,29.41,46,8,46,0.00
2013-9-18,64,56,46,49,43,36,87,64,39,29.65,29.50,19,4,19,0.00
2013-9-19,58,56,52,52,50,44,82,78,73,29.88,29.53,12,3,12,0.00
2013-9-20,68,58,49,51,44,38,83,62,35,30.00,29.88,14,5,14,0.00
2013-9-21,68,60,53,53,50,47,84,70,48,30.21,29.97,20,6,20,0.00
2013-9-22,68,58,46,53,46,42,94,67,42,30.27,30.12,12,2,12,0.00
2013-9-23,67,61,55,54,50,44,77,68,58,30.15,29.91,29,10,29,0.00
2013-9-24,71,64,58,51,50,48,73,61,47,29.91,29.85,27,10,27,0.00
2013-9-25,66,60,54,53,48,44,84,65,51,29.97,29.85,15,5,16,0.00
2013-9-26,70,59,51,61,52,44,90,78,52,29.91,29.77,24,3,24,0.00
2013-9-27,59,52,45,52,45,40,93,77,52,30.06,29.91,13,2,13,0.00
2013-9-28,63,51,40,56,41,36,97,72,38,30.00,29.91,9,2,9,0.00
2013-9-29,60,52,43,43,38,35,90,61,39,29.97,29.88,21,6,21,0.00
2013-9-30,62,54,47,39,36,34,64,51,38,29.88,29.77,28,7,28,0.00
2013-10-1,63,55,50,41,37,35,64,51,38,29.94,29.77,16,5,16,0.00
2013-10-2,55,50,42,37,30,22,63,46,30,30.30,29.91,16,5,16,0.00
2013-10-3,52,44,36,25,23,19,62,44,29,30.47,30.30,18,5,18,0.00
2013-10-4,53,42,31,31,25,23,76,54,32,30.47,30.36,11,2,11,0.00
2013-10-5,58,45,30,32,26,23,79,52,28,30.39,30.18,18,4,18,0.00
2013-10-6,62,51,38,34,30,25,61,46,34,30.27,30.18,10,2,10,0.00
2013-10-7,61,55,49,43,41,38,75,60,44,30.30,30.27,5,2,6,0.00
2013-10-8,68,55,42,46,38,33,88,57,28,30.33,30.21,13,3,13,0.00
2013-10-9,62,55,46,49,41,35,79,60,45,30.21,29.97,14,4,14,0.00
2013-10-10,57,55,52,54,52,49,95,89,80,29.97,29.85,14,4,14,0.00
2013-10-11,70,61,54,56,54,52,97,78,54,30.06,29.91,24,4,24,0.00
2013-10-12,73,63,54,60,56,53,97,79,53,30.12,30.03,16,4,16,0.00
2013-10-13,70,60,51,66,54,46,97,82,48,30.15,30.06,12,1,12,0.00
2013-10-14,65,55,45,53,48,44,97,79,54,30.18,30.06,7,1,7,0.00
2013-10-15,66,56,48,61,51,46,97,83,60,30.06,29.77,13,2,13,0.00
2013-10-16,53,49,46,51,47,44,97,91,76,29.77,29.59,26,8,26,0.00
2013-10-17,62,55,50,50,43,38,79,65,44,29.94,29.74,24,8,24,0.00
2013-10-18,63,55,48,51,44,41,88,67,49,30.09,29.88,25,6,26,0.00
2013-10-19,56,50,43,46,40,38,91,71,51,30.24,30.09,16,4,16,0.00
2013-10-20,65,54,44,50,45,39,89,72,51,30.21,30.06,11,3,11,0.00
2013-10-21,70,59,50,57,52,48,94,79,54,30.12,30.03,7,1,7,0.00
2013-10-22,66,58,49,58,54,48,97,87,72,30.12,30.06,10,3,12,0.00
2013-10-23,74,66,58,61,55,52,94,71,46,30.06,29.94,14,3,14,0.00
2013-10-24,72,64,54,57,55,52,93,74,53,30.15,30.03,9,1,9,0.00
2013-10-25,73,63,51,60,55,50,97,76,51,30.18,30.09,10,2,10,0.00
2013-10-26,72,60,50,57,53,48,94,77,54,30.12,30.06,6,1,6,0.00
2013-10-27,70,58,49,62,53,48,97,83,59,30.09,29.88,17,1,17,0.00
2013-10-28,70,65,58,58,54,49,81,68,54,30.00,29.85,14,3,15,0.00
2013-10-29,69,61,53,57,52,43,94,75,51,30.03,29.85,11,2,11,0.00
2013-10-30,65,56,50,54,45,39,90,68,49,30.27,30.00,15,4,15,0.00
2013-10-31,61,51,43,44,38,32,85,62,35,30.33,30.24,9,2,9,0.00
2013-11-1,58,51,44,47,43,38,86,75,60,30.27,30.06,8,2,8,0.00
2013-11-2,62,56,50,55,51,47,95,84,69,30.06,29.83,12,2,12,0.00
2013-11-3,62,54,50,59,51,41,97,89,68,29.85,29.59,30,4,30,0.00
2013-11-4,53,50,44,50,44,39,95,80,62,29.88,29.50,14,3,14,0.00
2013-11-5,54,50,46,54,49,39,97,94,76,29.50,29.41,19,4,19,0.00
2013-11-6,55,48,40,42,38,33,81,68,52,29.83,29.44,26,4,26,0.00
2013-11-7,59,53,47,49,45,39,92,76,62,29.97,29.83,12,3,12,0.00
2013-11-8,58,50,42,52,47,41,97,90,75,30.00,29.91,7,2,7,0.00
2013-11-9,58,53,49,54,49,47,97,87,73,29.91,29.83,16,4,16,0.00
2013-11-10,59,52,48,48,44,40,95,77,55,29.83,29.71,12,3,12,0.00
2013-11-11,54,51,48,48,42,37,97,72,58,30.24,29.77,14,7,14,0.00
2013-11-12,57,52,47,44,39,33,77,61,49,30.27,30.21,12,4,12,0.00
2013-11-13,52,49,45,49,44,40,90,83,77,30.24,30.18,15,3,15,0.00
2013-11-14,46,45,43,44,40,37,97,84,72,30.24,30.09,7,2,7,0.00
2013-11-15,49,47,44,40,38,36,79,73,69,30.33,30.09,0,0,0,0.00
2013-11-16,57,48,41,48,42,38,94,79,56,30.36,30.27,5,1,5,0.00
2013-11-17,46,42,35,45,41,34,97,96,92,30.27,30.18,6,1,6,0.00
2013-11-18,45,42,40,43,41,40,97,97,94,30.18,30.03,14,5,14,0.00
2013-11-19,46,43,40,42,40,38,97,88,76,30.03,29.71,21,6,21,0.00
2013-11-20,51,48,44,48,44,40,97,86,73,29.71,29.53,13,3,13,0.00
2013-11-21,47,43,39,46,42,38,97,97,96,29.65,29.56,13,2,13,0.00
2013-11-22,51,48,46,48,46,44,97,95,90,29.74,29.59,12,3,12,0.00
2013-11-23,54,48,44,48,45,43,96,87,75,29.74,29.68,12,4,12,0.00
2013-11-24,49,47,43,46,44,42,97,92,78,29.68,29.65,12,3,12,0.00
2013-11-25,43,38,36,42,29,22,97,70,52,30.00,29.65,25,10,27,0.00
2013-11-26,40,36,32,29,25,22,76,66,53,30.18,30.00,13,4,13,0.00
2013-11-27,40,34,27,25,19,15,75,56,38,30.39,30.18,12,4,12,0.00
2013-11-28,39,32,23,31,23,17,88,69,40,30.39,30.18,20,4,20,0.00
2013-11-29,49,40,36,33,30,28,78,69,51,30.18,30.00,24,7,24,0.00
2013-11-30,41,36,31,30,29,27,88,73,62,30.24,29.94,10,3,10,0.00
2013-12-1,45,36,26,36,28,24,95,75,52,30.30,30.21,20,3,20,0.00
2013-12-2,52,41,36,35,29,21,81,63,49,30.56,30.21,24,5,24,0.00
2013-12-3,44,34,27,31,22,20,84,63,45,30.56,30.42,8,2,8,0.00
2013-12-4,34,27,22,33,24,18,97,91,77,30.42,30.12,16,2,16,0.00
2013-12-5,42,38,34,34,29,26,97,70,54,30.21,29.83,24,5,24,0.00
2013-12-6,46,39,36,36,26,21,84,59,43,29.83,29.65,42,11,42,0.00
2013-12-7,39,36,34,29,23,18,81,59,45,30.15,29.83,38,13,38,0.00
2013-12-8,43,40,36,35,32,26,80,73,64,30.30,30.15,14,4,14,0.00
2013-12-9,47,44,40,40,36,29,80,72,54,30.24,30.09,30,7,30,0.00
2013-12-10,45,37,28,39,27,19,85,69,53,30.68,30.21,16,5,16,0.00
2013-12-11,37,32,27,26,21,18,76,64,45,30.68,30.53,7,2,7,0.00
2013-12-12,36,34,32,32,29,24,88,79,70,30.53,30.36,5,0,5,0.00
2013-12-13,34,32,30,31,30,28,94,90,87,30.36,30.27,0,0,0,0.00
2013-12-14,33,32,30,32,29,27,96,89,83,30.42,30.30,0,0,0,0.00
2013-12-15,37,34,32,35,32,28,97,93,85,30.53,30.39,0,0,0,0.00
2013-12-16,35,34,32,34,33,32,97,96,94,30.62,30.50,9,1,9,0.00
2013-12-17,33,32,30,32,31,30,97,96,92,30.62,30.47,11,3,11,0.00
2013-12-18,32,30,28,31,28,26,97,94,91,30.47,30.27,12,4,12,0.00
2013-12-19,30,29,27,30,27,25,97,94,90,30.27,30.12,15,6,15,0.00
2013-12-20,32,30,28,31,29,28,97,97,97,30.42,30.18,12,4,12,0.00
2013-12-21,44,36,30,36,31,26,97,84,67,30.56,30.42,11,4,12,0.00
2013-12-22,33,32,31,32,31,30,97,96,94,30.53,30.30,11,3,11,0.00
2013-12-23,39,36,33,37,35,32,97,96,93,30.30,30.24,8,2,8,0.00
2013-12-24,40,36,32,39,36,32,97,96,94,30.15,29.53,12,3,12,0.00
2013-12-25,49,39,30,38,32,29,97,78,55,30.00,29.77,11,2,11,0.00
2013-12-26,47,42,36,44,37,31,91,84,74,29.77,29.62,11,3,11,0.00
2013-12-27,53,46,39,46,41,35,94,83,70,30.00,29.68,11,3,11,0.00
2013-12-28,43,38,33,42,37,32,97,96,91,30.03,29.97,7,2,7,0.00
2013-12-29,46,41,32,45,39,32,97,92,70,30.21,29.94,15,3,15,0.00
2013-12-30,47,43,40,42,38,35,92,81,69,30.36,30.18,11,2,11,0.00
2013-12-31,40,38,36,38,35,31,97,90,77,30.30,30.21,13,5,13,0.00
2014-1-1,40,37,36,36,33,32,92,85,80,30.21,30.12,13,2,13,0.00
2014-1-2,42,38,35,36,34,32,96,86,74,30.12,29.94,0,0,0,0.00